sensor_id;sensor_type;location;lat;lon;timestamp;P1;durP1;ratioP1;P2;durP2;ratioP2
18102;SDS011;9178;51.120;6.192;2022-12-18T00:00:06;31.80;;;12.63;;
18102;SDS011;9178;51.120;6.192;2022-12-18T00:02:35;23.63;;;11.20;;
18102;SDS011;9178;51.120;6.192;2022-12-18T00:05:02;23.00;;;11.47;;
18102;SDS011;9178;51.120;6.192;2022-12-18T00:07:29;21.83;;;11.67;;
18102;SDS011;9178;51.120;6.192;2022-12-18T00:09:56;24.03;;;11.43;;
18102;SDS011;9178;51.120;6.192;2022-12-18T00:12:23;22.73;;;10.07;;
18102;SDS011;9178;51.120;6.192;2022-12-18T00:14:49;23.70;;;11.57;;
18102;SDS011;9178;51.120;6.192;2022-12-18T00:17:16;24.70;;;11.93;;
18102;SDS011;9178;51.120;6.192;2022-12-18T00:19:44;30.10;;;12.23;;
18102;SDS011;9178;51.120;6.192;2022-12-18T00:22:11;25.37;;;11.77;;
18102;SDS011;9178;51.120;6.192;2022-12-18T00:24:37;24.57;;;11.37;;
18102;SDS011;9178;51.120;6.192;2022-12-18T00:27:04;22.73;;;12.57;;
18102;SDS011;9178;51.120;6.192;2022-12-18T00:29:31;26.30;;;11.83;;
18102;SDS011;9178;51.120;6.192;2022-12-18T00:31:58;30.17;;;11.53;;
18102;SDS011;9178;51.120;6.192;2022-12-18T00:34:24;25.00;;;12.10;;
18102;SDS011;9178;51.120;6.192;2022-12-18T00:36:52;22.73;;;11.53;;
18102;SDS011;9178;51.120;6.192;2022-12-18T00:39:19;24.93;;;12.30;;
18102;SDS011;9178;51.120;6.192;2022-12-18T00:41:46;24.63;;;11.33;;
18102;SDS011;9178;51.120;6.192;2022-12-18T00:44:30;23.03;;;10.80;;
18102;SDS011;9178;51.120;6.192;2022-12-18T00:46:57;21.57;;;11.33;;
18102;SDS011;9178;51.120;6.192;2022-12-18T00:49:24;21.20;;;11.13;;
18102;SDS011;9178;51.120;6.192;2022-12-18T00:51:50;30.10;;;11.80;;
18102;SDS011;9178;51.120;6.192;2022-12-18T00:54:21;29.10;;;11.97;;
18102;SDS011;9178;51.120;6.192;2022-12-18T00:56:48;26.17;;;11.57;;
18102;SDS011;9178;51.120;6.192;2022-12-18T00:59:14;25.00;;;12.10;;
18102;SDS011;9178;51.120;6.192;2022-12-18T01:01:41;24.33;;;10.73;;
18102;SDS011;9178;51.120;6.192;2022-12-18T01:04:08;22.23;;;11.00;;
18102;SDS011;9178;51.120;6.192;2022-12-18T01:06:35;24.97;;;11.13;;
18102;SDS011;9178;51.120;6.192;2022-12-18T01:09:03;22.87;;;11.27;;
18102;SDS011;9178;51.120;6.192;2022-12-18T01:11:30;22.03;;;10.47;;
18102;SDS011;9178;51.120;6.192;2022-12-18T01:13:56;26.60;;;12.10;;
18102;SDS011;9178;51.120;6.192;2022-12-18T01:16:23;21.40;;;11.47;;
18102;SDS011;9178;51.120;6.192;2022-12-18T01:18:51;21.27;;;10.60;;
18102;SDS011;9178;51.120;6.192;2022-12-18T01:21:19;19.90;;;11.07;;
18102;SDS011;9178;51.120;6.192;2022-12-18T01:23:46;22.50;;;11.10;;
18102;SDS011;9178;51.120;6.192;2022-12-18T01:26:19;19.93;;;10.37;;
18102;SDS011;9178;51.120;6.192;2022-12-18T01:28:46;19.97;;;9.73;;
18102;SDS011;9178;51.120;6.192;2022-12-18T01:31:14;21.70;;;10.20;;
18102;SDS011;9178;51.120;6.192;2022-12-18T01:33:43;18.30;;;9.87;;
18102;SDS011;9178;51.120;6.192;2022-12-18T01:36:14;21.70;;;10.43;;
18102;SDS011;9178;51.120;6.192;2022-12-18T01:38:42;20.73;;;10.27;;
18102;SDS011;9178;51.120;6.192;2022-12-18T01:41:09;20.30;;;9.90;;
18102;SDS011;9178;51.120;6.192;2022-12-18T01:43:48;20.07;;;10.37;;
18102;SDS011;9178;51.120;6.192;2022-12-18T01:46:17;17.87;;;9.43;;
18102;SDS011;9178;51.120;6.192;2022-12-18T01:48:47;22.67;;;10.83;;
18102;SDS011;9178;51.120;6.192;2022-12-18T01:51:17;17.97;;;10.13;;
18102;SDS011;9178;51.120;6.192;2022-12-18T01:53:44;22.27;;;10.77;;
18102;SDS011;9178;51.120;6.192;2022-12-18T01:56:14;20.47;;;9.90;;
18102;SDS011;9178;51.120;6.192;2022-12-18T01:58:45;21.07;;;10.00;;
18102;SDS011;9178;51.120;6.192;2022-12-18T02:01:17;20.90;;;10.33;;
18102;SDS011;9178;51.120;6.192;2022-12-18T02:03:45;23.90;;;10.67;;
18102;SDS011;9178;51.120;6.192;2022-12-18T02:06:13;21.13;;;10.07;;
18102;SDS011;9178;51.120;6.192;2022-12-18T02:08:48;21.80;;;9.83;;
18102;SDS011;9178;51.120;6.192;2022-12-18T02:11:26;22.60;;;9.93;;
18102;SDS011;9178;51.120;6.192;2022-12-18T02:14:10;20.77;;;10.13;;
18102;SDS011;9178;51.120;6.192;2022-12-18T02:16:44;20.80;;;10.07;;
18102;SDS011;9178;51.120;6.192;2022-12-18T02:19:20;21.73;;;10.63;;
18102;SDS011;9178;51.120;6.192;2022-12-18T02:22:03;19.03;;;9.87;;
18102;SDS011;9178;51.120;6.192;2022-12-18T02:24:40;19.93;;;9.53;;
18102;SDS011;9178;51.120;6.192;2022-12-18T02:27:14;18.93;;;9.40;;
18102;SDS011;9178;51.120;6.192;2022-12-18T02:29:43;18.83;;;10.37;;
18102;SDS011;9178;51.120;6.192;2022-12-18T02:32:15;21.97;;;9.67;;
18102;SDS011;9178;51.120;6.192;2022-12-18T02:34:46;20.07;;;9.80;;
18102;SDS011;9178;51.120;6.192;2022-12-18T02:37:15;19.73;;;9.63;;
18102;SDS011;9178;51.120;6.192;2022-12-18T02:39:45;20.93;;;9.60;;
18102;SDS011;9178;51.120;6.192;2022-12-18T02:42:14;22.20;;;10.30;;
18102;SDS011;9178;51.120;6.192;2022-12-18T02:44:43;25.53;;;10.30;;
18102;SDS011;9178;51.120;6.192;2022-12-18T02:47:11;21.53;;;10.17;;
18102;SDS011;9178;51.120;6.192;2022-12-18T02:49:42;18.53;;;9.37;;
18102;SDS011;9178;51.120;6.192;2022-12-18T02:52:21;19.30;;;9.17;;
18102;SDS011;9178;51.120;6.192;2022-12-18T02:54:56;16.07;;;8.97;;
18102;SDS011;9178;51.120;6.192;2022-12-18T02:57:33;19.73;;;9.20;;
18102;SDS011;9178;51.120;6.192;2022-12-18T03:00:04;18.67;;;9.17;;
18102;SDS011;9178;51.120;6.192;2022-12-18T03:02:37;17.27;;;9.60;;
18102;SDS011;9178;51.120;6.192;2022-12-18T03:05:09;22.40;;;9.47;;
18102;SDS011;9178;51.120;6.192;2022-12-18T03:07:40;20.53;;;9.60;;
18102;SDS011;9178;51.120;6.192;2022-12-18T03:10:12;20.40;;;9.97;;
18102;SDS011;9178;51.120;6.192;2022-12-18T03:12:44;22.33;;;10.13;;
18102;SDS011;9178;51.120;6.192;2022-12-18T03:15:16;17.70;;;9.53;;
18102;SDS011;9178;51.120;6.192;2022-12-18T03:17:48;25.43;;;10.30;;
18102;SDS011;9178;51.120;6.192;2022-12-18T03:20:19;21.37;;;10.27;;
18102;SDS011;9178;51.120;6.192;2022-12-18T03:22:49;20.77;;;9.63;;
18102;SDS011;9178;51.120;6.192;2022-12-18T03:25:19;22.90;;;10.20;;
18102;SDS011;9178;51.120;6.192;2022-12-18T03:27:49;23.83;;;10.67;;
18102;SDS011;9178;51.120;6.192;2022-12-18T03:30:20;21.57;;;10.07;;
18102;SDS011;9178;51.120;6.192;2022-12-18T03:32:47;21.13;;;10.50;;
18102;SDS011;9178;51.120;6.192;2022-12-18T03:35:19;22.00;;;10.90;;
18102;SDS011;9178;51.120;6.192;2022-12-18T03:37:50;21.20;;;10.23;;
18102;SDS011;9178;51.120;6.192;2022-12-18T03:40:17;22.67;;;11.03;;
18102;SDS011;9178;51.120;6.192;2022-12-18T03:42:46;21.70;;;10.80;;
18102;SDS011;9178;51.120;6.192;2022-12-18T03:45:19;25.80;;;11.73;;
18102;SDS011;9178;51.120;6.192;2022-12-18T03:47:53;23.60;;;11.57;;
18102;SDS011;9178;51.120;6.192;2022-12-18T03:50:29;25.17;;;10.77;;
18102;SDS011;9178;51.120;6.192;2022-12-18T03:53:04;24.17;;;11.83;;
18102;SDS011;9178;51.120;6.192;2022-12-18T03:55:40;25.80;;;11.47;;
18102;SDS011;9178;51.120;6.192;2022-12-18T03:58:09;26.53;;;12.20;;
18102;SDS011;9178;51.120;6.192;2022-12-18T04:00:40;20.87;;;10.73;;
18102;SDS011;9178;51.120;6.192;2022-12-18T04:03:08;25.17;;;11.00;;
18102;SDS011;9178;51.120;6.192;2022-12-18T04:05:36;22.90;;;10.97;;
18102;SDS011;9178;51.120;6.192;2022-12-18T04:08:04;24.73;;;11.37;;
18102;SDS011;9178;51.120;6.192;2022-12-18T04:10:31;25.53;;;11.67;;
18102;SDS011;9178;51.120;6.192;2022-12-18T04:12:58;27.03;;;11.57;;
18102;SDS011;9178;51.120;6.192;2022-12-18T04:15:26;23.43;;;11.57;;
18102;SDS011;9178;51.120;6.192;2022-12-18T04:17:53;22.97;;;11.10;;
18102;SDS011;9178;51.120;6.192;2022-12-18T04:20:20;20.13;;;10.53;;
18102;SDS011;9178;51.120;6.192;2022-12-18T04:22:46;26.73;;;11.40;;
18102;SDS011;9178;51.120;6.192;2022-12-18T04:25:13;24.97;;;11.07;;
18102;SDS011;9178;51.120;6.192;2022-12-18T04:27:40;23.83;;;10.43;;
18102;SDS011;9178;51.120;6.192;2022-12-18T04:30:07;24.60;;;10.97;;
18102;SDS011;9178;51.120;6.192;2022-12-18T04:32:36;23.97;;;11.67;;
18102;SDS011;9178;51.120;6.192;2022-12-18T04:35:03;25.00;;;11.50;;
18102;SDS011;9178;51.120;6.192;2022-12-18T04:37:33;22.30;;;10.97;;
18102;SDS011;9178;51.120;6.192;2022-12-18T04:40:00;24.73;;;11.07;;
18102;SDS011;9178;51.120;6.192;2022-12-18T04:42:26;21.70;;;11.20;;
18102;SDS011;9178;51.120;6.192;2022-12-18T04:44:53;23.63;;;11.10;;
18102;SDS011;9178;51.120;6.192;2022-12-18T04:47:20;22.27;;;10.67;;
18102;SDS011;9178;51.120;6.192;2022-12-18T04:49:48;19.70;;;10.37;;
18102;SDS011;9178;51.120;6.192;2022-12-18T04:52:15;21.77;;;11.07;;
18102;SDS011;9178;51.120;6.192;2022-12-18T04:54:41;24.60;;;11.97;;
18102;SDS011;9178;51.120;6.192;2022-12-18T04:57:08;23.13;;;11.90;;
18102;SDS011;9178;51.120;6.192;2022-12-18T04:59:35;23.27;;;11.27;;
18102;SDS011;9178;51.120;6.192;2022-12-18T05:02:02;24.67;;;11.73;;
18102;SDS011;9178;51.120;6.192;2022-12-18T05:04:28;21.73;;;10.80;;
18102;SDS011;9178;51.120;6.192;2022-12-18T05:06:56;22.80;;;11.33;;
18102;SDS011;9178;51.120;6.192;2022-12-18T05:09:23;24.40;;;11.37;;
18102;SDS011;9178;51.120;6.192;2022-12-18T05:11:50;20.13;;;10.73;;
18102;SDS011;9178;51.120;6.192;2022-12-18T05:14:17;23.63;;;10.73;;
18102;SDS011;9178;51.120;6.192;2022-12-18T05:16:44;24.27;;;11.07;;
18102;SDS011;9178;51.120;6.192;2022-12-18T05:19:10;22.57;;;11.37;;
18102;SDS011;9178;51.120;6.192;2022-12-18T05:21:37;26.30;;;11.83;;
18102;SDS011;9178;51.120;6.192;2022-12-18T05:24:06;25.13;;;11.50;;
18102;SDS011;9178;51.120;6.192;2022-12-18T05:26:32;23.07;;;11.57;;
18102;SDS011;9178;51.120;6.192;2022-12-18T05:28:59;24.63;;;10.97;;
18102;SDS011;9178;51.120;6.192;2022-12-18T05:31:26;24.60;;;11.50;;
18102;SDS011;9178;51.120;6.192;2022-12-18T05:33:53;20.83;;;10.63;;
18102;SDS011;9178;51.120;6.192;2022-12-18T05:36:20;27.03;;;12.43;;
18102;SDS011;9178;51.120;6.192;2022-12-18T05:38:46;23.43;;;11.23;;
18102;SDS011;9178;51.120;6.192;2022-12-18T05:41:15;22.40;;;11.67;;
18102;SDS011;9178;51.120;6.192;2022-12-18T05:43:43;24.37;;;12.33;;
18102;SDS011;9178;51.120;6.192;2022-12-18T05:46:11;25.13;;;12.07;;
18102;SDS011;9178;51.120;6.192;2022-12-18T05:48:39;21.87;;;11.90;;
18102;SDS011;9178;51.120;6.192;2022-12-18T05:51:06;22.13;;;11.57;;
18102;SDS011;9178;51.120;6.192;2022-12-18T05:53:34;23.73;;;11.23;;
18102;SDS011;9178;51.120;6.192;2022-12-18T05:56:02;23.33;;;10.77;;
18102;SDS011;9178;51.120;6.192;2022-12-18T05:58:34;26.57;;;11.50;;
18102;SDS011;9178;51.120;6.192;2022-12-18T06:01:05;27.10;;;11.80;;
18102;SDS011;9178;51.120;6.192;2022-12-18T06:03:33;25.63;;;10.97;;
18102;SDS011;9178;51.120;6.192;2022-12-18T06:06:00;22.67;;;11.20;;
18102;SDS011;9178;51.120;6.192;2022-12-18T06:08:27;29.37;;;11.93;;
18102;SDS011;9178;51.120;6.192;2022-12-18T06:10:53;22.77;;;11.47;;
18102;SDS011;9178;51.120;6.192;2022-12-18T06:13:20;24.53;;;11.43;;
18102;SDS011;9178;51.120;6.192;2022-12-18T06:15:48;23.17;;;11.37;;
18102;SDS011;9178;51.120;6.192;2022-12-18T06:18:15;23.20;;;10.80;;
18102;SDS011;9178;51.120;6.192;2022-12-18T06:20:42;24.27;;;12.00;;
18102;SDS011;9178;51.120;6.192;2022-12-18T06:23:09;26.40;;;11.57;;
18102;SDS011;9178;51.120;6.192;2022-12-18T06:25:37;26.10;;;12.17;;
18102;SDS011;9178;51.120;6.192;2022-12-18T06:28:04;23.47;;;11.40;;
18102;SDS011;9178;51.120;6.192;2022-12-18T06:30:31;22.57;;;10.90;;
18102;SDS011;9178;51.120;6.192;2022-12-18T06:32:59;26.00;;;12.63;;
18102;SDS011;9178;51.120;6.192;2022-12-18T06:35:26;25.80;;;11.87;;
18102;SDS011;9178;51.120;6.192;2022-12-18T06:37:52;27.80;;;12.60;;
18102;SDS011;9178;51.120;6.192;2022-12-18T06:40:19;22.40;;;11.67;;
18102;SDS011;9178;51.120;6.192;2022-12-18T06:42:46;24.40;;;12.10;;
18102;SDS011;9178;51.120;6.192;2022-12-18T06:45:13;27.00;;;12.23;;
18102;SDS011;9178;51.120;6.192;2022-12-18T06:47:41;22.93;;;11.70;;
18102;SDS011;9178;51.120;6.192;2022-12-18T06:50:09;24.53;;;11.40;;
18102;SDS011;9178;51.120;6.192;2022-12-18T06:52:36;24.63;;;12.43;;
18102;SDS011;9178;51.120;6.192;2022-12-18T06:55:04;28.47;;;12.50;;
18102;SDS011;9178;51.120;6.192;2022-12-18T06:57:31;22.73;;;11.50;;
18102;SDS011;9178;51.120;6.192;2022-12-18T06:59:58;28.60;;;12.83;;
18102;SDS011;9178;51.120;6.192;2022-12-18T07:02:25;22.50;;;11.93;;
18102;SDS011;9178;51.120;6.192;2022-12-18T07:04:52;25.57;;;12.17;;
18102;SDS011;9178;51.120;6.192;2022-12-18T07:07:20;24.30;;;11.63;;
18102;SDS011;9178;51.120;6.192;2022-12-18T07:09:46;24.93;;;12.43;;
18102;SDS011;9178;51.120;6.192;2022-12-18T07:12:15;27.77;;;12.67;;
18102;SDS011;9178;51.120;6.192;2022-12-18T07:14:42;24.83;;;12.27;;
18102;SDS011;9178;51.120;6.192;2022-12-18T07:17:09;28.97;;;12.50;;
18102;SDS011;9178;51.120;6.192;2022-12-18T07:19:35;26.33;;;12.37;;
18102;SDS011;9178;51.120;6.192;2022-12-18T07:22:02;29.43;;;14.10;;
18102;SDS011;9178;51.120;6.192;2022-12-18T07:24:30;29.03;;;14.00;;
18102;SDS011;9178;51.120;6.192;2022-12-18T07:26:58;27.13;;;13.10;;
18102;SDS011;9178;51.120;6.192;2022-12-18T07:29:25;27.27;;;13.77;;
18102;SDS011;9178;51.120;6.192;2022-12-18T07:31:52;27.67;;;13.23;;
18102;SDS011;9178;51.120;6.192;2022-12-18T07:34:18;29.63;;;13.93;;
18102;SDS011;9178;51.120;6.192;2022-12-18T07:36:45;27.43;;;13.97;;
18102;SDS011;9178;51.120;6.192;2022-12-18T07:39:12;24.67;;;13.07;;
18102;SDS011;9178;51.120;6.192;2022-12-18T07:41:40;28.73;;;13.13;;
18102;SDS011;9178;51.120;6.192;2022-12-18T07:44:29;25.23;;;13.33;;
18102;SDS011;9178;51.120;6.192;2022-12-18T07:46:56;28.10;;;13.20;;
18102;SDS011;9178;51.120;6.192;2022-12-18T07:49:23;28.63;;;14.60;;
18102;SDS011;9178;51.120;6.192;2022-12-18T07:51:50;26.20;;;13.30;;
18102;SDS011;9178;51.120;6.192;2022-12-18T07:54:16;26.80;;;13.83;;
18102;SDS011;9178;51.120;6.192;2022-12-18T07:56:44;25.83;;;12.93;;
18102;SDS011;9178;51.120;6.192;2022-12-18T07:59:17;25.13;;;12.87;;
18102;SDS011;9178;51.120;6.192;2022-12-18T08:01:44;25.93;;;12.73;;
18102;SDS011;9178;51.120;6.192;2022-12-18T08:04:11;25.47;;;13.00;;
18102;SDS011;9178;51.120;6.192;2022-12-18T08:06:38;29.53;;;13.30;;
18102;SDS011;9178;51.120;6.192;2022-12-18T08:09:04;32.90;;;15.63;;
18102;SDS011;9178;51.120;6.192;2022-12-18T08:11:33;27.27;;;14.17;;
18102;SDS011;9178;51.120;6.192;2022-12-18T08:14:01;28.93;;;12.67;;
18102;SDS011;9178;51.120;6.192;2022-12-18T08:16:28;24.30;;;12.17;;
18102;SDS011;9178;51.120;6.192;2022-12-18T08:18:55;22.47;;;12.23;;
18102;SDS011;9178;51.120;6.192;2022-12-18T08:21:22;25.07;;;12.70;;
18102;SDS011;9178;51.120;6.192;2022-12-18T08:23:51;25.57;;;13.27;;
18102;SDS011;9178;51.120;6.192;2022-12-18T08:26:20;24.87;;;11.70;;
18102;SDS011;9178;51.120;6.192;2022-12-18T08:28:48;27.37;;;13.03;;
18102;SDS011;9178;51.120;6.192;2022-12-18T08:31:17;26.73;;;13.83;;
18102;SDS011;9178;51.120;6.192;2022-12-18T08:33:43;28.77;;;14.70;;
18102;SDS011;9178;51.120;6.192;2022-12-18T08:36:10;27.30;;;12.77;;
18102;SDS011;9178;51.120;6.192;2022-12-18T08:38:37;24.97;;;11.87;;
18102;SDS011;9178;51.120;6.192;2022-12-18T08:41:05;25.73;;;13.03;;
18102;SDS011;9178;51.120;6.192;2022-12-18T08:43:32;24.73;;;12.73;;
18102;SDS011;9178;51.120;6.192;2022-12-18T08:46:19;22.13;;;12.47;;
18102;SDS011;9178;51.120;6.192;2022-12-18T08:48:47;22.07;;;11.73;;
18102;SDS011;9178;51.120;6.192;2022-12-18T08:51:16;27.17;;;12.97;;
18102;SDS011;9178;51.120;6.192;2022-12-18T08:53:43;26.43;;;12.90;;
18102;SDS011;9178;51.120;6.192;2022-12-18T08:56:11;22.60;;;12.23;;
18102;SDS011;9178;51.120;6.192;2022-12-18T08:58:38;27.90;;;13.43;;
18102;SDS011;9178;51.120;6.192;2022-12-18T09:01:05;25.73;;;12.53;;
18102;SDS011;9178;51.120;6.192;2022-12-18T09:03:36;23.47;;;12.97;;
18102;SDS011;9178;51.120;6.192;2022-12-18T09:06:04;25.47;;;12.70;;
18102;SDS011;9178;51.120;6.192;2022-12-18T09:08:31;26.53;;;13.27;;
18102;SDS011;9178;51.120;6.192;2022-12-18T09:10:58;21.63;;;12.33;;
18102;SDS011;9178;51.120;6.192;2022-12-18T09:13:25;21.23;;;12.27;;
18102;SDS011;9178;51.120;6.192;2022-12-18T09:15:52;24.93;;;13.07;;
18102;SDS011;9178;51.120;6.192;2022-12-18T09:18:20;24.33;;;13.03;;
18102;SDS011;9178;51.120;6.192;2022-12-18T09:20:50;22.50;;;11.47;;
18102;SDS011;9178;51.120;6.192;2022-12-18T09:23:18;21.57;;;11.67;;
18102;SDS011;9178;51.120;6.192;2022-12-18T09:25:44;26.43;;;13.83;;
18102;SDS011;9178;51.120;6.192;2022-12-18T09:28:13;23.63;;;12.67;;
18102;SDS011;9178;51.120;6.192;2022-12-18T09:30:41;24.47;;;12.80;;
18102;SDS011;9178;51.120;6.192;2022-12-18T09:33:09;23.80;;;12.00;;
18102;SDS011;9178;51.120;6.192;2022-12-18T09:35:36;21.50;;;12.23;;
18102;SDS011;9178;51.120;6.192;2022-12-18T09:38:05;23.33;;;12.97;;
18102;SDS011;9178;51.120;6.192;2022-12-18T09:40:33;22.20;;;12.50;;
18102;SDS011;9178;51.120;6.192;2022-12-18T09:43:02;22.20;;;12.13;;
18102;SDS011;9178;51.120;6.192;2022-12-18T09:45:30;25.40;;;12.17;;
18102;SDS011;9178;51.120;6.192;2022-12-18T09:48:04;24.60;;;12.90;;
18102;SDS011;9178;51.120;6.192;2022-12-18T09:50:32;22.90;;;11.97;;
18102;SDS011;9178;51.120;6.192;2022-12-18T09:53:05;20.70;;;11.60;;
18102;SDS011;9178;51.120;6.192;2022-12-18T09:55:38;21.30;;;11.67;;
18102;SDS011;9178;51.120;6.192;2022-12-18T09:58:11;22.40;;;11.90;;
18102;SDS011;9178;51.120;6.192;2022-12-18T10:00:41;19.07;;;11.17;;
18102;SDS011;9178;51.120;6.192;2022-12-18T10:03:08;20.60;;;11.37;;
18102;SDS011;9178;51.120;6.192;2022-12-18T10:05:37;21.30;;;11.17;;
18102;SDS011;9178;51.120;6.192;2022-12-18T10:08:13;22.07;;;12.33;;
18102;SDS011;9178;51.120;6.192;2022-12-18T10:10:46;21.47;;;12.03;;
18102;SDS011;9178;51.120;6.192;2022-12-18T10:13:16;21.20;;;11.57;;
18102;SDS011;9178;51.120;6.192;2022-12-18T10:15:53;24.67;;;12.23;;
18102;SDS011;9178;51.120;6.192;2022-12-18T10:18:29;21.73;;;12.40;;
18102;SDS011;9178;51.120;6.192;2022-12-18T10:21:09;20.87;;;12.17;;
18102;SDS011;9178;51.120;6.192;2022-12-18T10:23:42;23.70;;;12.10;;
18102;SDS011;9178;51.120;6.192;2022-12-18T10:26:13;21.17;;;11.63;;
18102;SDS011;9178;51.120;6.192;2022-12-18T10:28:40;22.67;;;11.90;;
18102;SDS011;9178;51.120;6.192;2022-12-18T10:31:10;21.53;;;11.70;;
18102;SDS011;9178;51.120;6.192;2022-12-18T10:33:42;20.73;;;11.70;;
18102;SDS011;9178;51.120;6.192;2022-12-18T10:36:09;22.57;;;11.67;;
18102;SDS011;9178;51.120;6.192;2022-12-18T10:38:36;22.17;;;12.07;;
18102;SDS011;9178;51.120;6.192;2022-12-18T10:41:05;23.57;;;12.57;;
18102;SDS011;9178;51.120;6.192;2022-12-18T10:43:52;22.77;;;13.17;;
18102;SDS011;9178;51.120;6.192;2022-12-18T10:46:38;26.23;;;14.30;;
18102;SDS011;9178;51.120;6.192;2022-12-18T10:49:05;23.20;;;12.77;;
18102;SDS011;9178;51.120;6.192;2022-12-18T10:51:32;23.53;;;11.87;;
18102;SDS011;9178;51.120;6.192;2022-12-18T10:54:01;27.83;;;12.00;;
18102;SDS011;9178;51.120;6.192;2022-12-18T10:56:32;20.30;;;11.87;;
18102;SDS011;9178;51.120;6.192;2022-12-18T10:59:01;24.40;;;11.87;;
18102;SDS011;9178;51.120;6.192;2022-12-18T11:01:31;20.13;;;11.50;;
18102;SDS011;9178;51.120;6.192;2022-12-18T11:04:13;21.47;;;11.37;;
18102;SDS011;9178;51.120;6.192;2022-12-18T11:06:52;19.80;;;11.53;;
18102;SDS011;9178;51.120;6.192;2022-12-18T11:09:24;18.70;;;11.33;;
18102;SDS011;9178;51.120;6.192;2022-12-18T11:11:54;20.60;;;11.87;;
18102;SDS011;9178;51.120;6.192;2022-12-18T11:14:23;21.53;;;13.37;;
18102;SDS011;9178;51.120;6.192;2022-12-18T11:16:52;23.13;;;12.20;;
18102;SDS011;9178;51.120;6.192;2022-12-18T11:19:23;20.57;;;11.80;;
18102;SDS011;9178;51.120;6.192;2022-12-18T11:21:56;20.87;;;11.57;;
18102;SDS011;9178;51.120;6.192;2022-12-18T11:24:25;20.93;;;11.90;;
18102;SDS011;9178;51.120;6.192;2022-12-18T11:26:57;29.53;;;15.17;;
18102;SDS011;9178;51.120;6.192;2022-12-18T11:29:30;19.47;;;12.07;;
18102;SDS011;9178;51.120;6.192;2022-12-18T11:32:12;20.30;;;11.33;;
18102;SDS011;9178;51.120;6.192;2022-12-18T11:35:00;23.63;;;12.23;;
18102;SDS011;9178;51.120;6.192;2022-12-18T11:37:34;21.57;;;11.87;;
18102;SDS011;9178;51.120;6.192;2022-12-18T11:40:03;20.67;;;12.37;;
18102;SDS011;9178;51.120;6.192;2022-12-18T11:42:41;18.70;;;11.00;;
18102;SDS011;9178;51.120;6.192;2022-12-18T11:45:20;22.83;;;11.70;;
18102;SDS011;9178;51.120;6.192;2022-12-18T11:47:54;19.73;;;11.27;;
18102;SDS011;9178;51.120;6.192;2022-12-18T11:50:25;20.57;;;12.03;;
18102;SDS011;9178;51.120;6.192;2022-12-18T11:52:58;19.00;;;10.50;;
18102;SDS011;9178;51.120;6.192;2022-12-18T11:55:30;17.77;;;11.57;;
18102;SDS011;9178;51.120;6.192;2022-12-18T11:58:05;18.47;;;11.20;;
18102;SDS011;9178;51.120;6.192;2022-12-18T12:00:40;18.87;;;10.50;;
18102;SDS011;9178;51.120;6.192;2022-12-18T12:03:22;17.90;;;10.87;;
18102;SDS011;9178;51.120;6.192;2022-12-18T12:06:03;18.87;;;10.83;;
18102;SDS011;9178;51.120;6.192;2022-12-18T12:08:42;20.53;;;11.40;;
18102;SDS011;9178;51.120;6.192;2022-12-18T12:11:20;18.63;;;10.40;;
18102;SDS011;9178;51.120;6.192;2022-12-18T12:14:00;19.57;;;10.93;;
18102;SDS011;9178;51.120;6.192;2022-12-18T12:16:41;19.33;;;10.27;;
18102;SDS011;9178;51.120;6.192;2022-12-18T12:19:20;21.47;;;12.93;;
18102;SDS011;9178;51.120;6.192;2022-12-18T12:22:00;21.30;;;11.93;;
18102;SDS011;9178;51.120;6.192;2022-12-18T12:24:37;19.80;;;11.57;;
18102;SDS011;9178;51.120;6.192;2022-12-18T12:27:15;20.40;;;11.77;;
18102;SDS011;9178;51.120;6.192;2022-12-18T12:29:54;21.80;;;11.80;;
18102;SDS011;9178;51.120;6.192;2022-12-18T12:32:33;21.57;;;10.53;;
18102;SDS011;9178;51.120;6.192;2022-12-18T12:35:12;18.10;;;10.50;;
18102;SDS011;9178;51.120;6.192;2022-12-18T12:37:51;19.10;;;10.90;;
18102;SDS011;9178;51.120;6.192;2022-12-18T12:40:26;20.93;;;12.53;;
18102;SDS011;9178;51.120;6.192;2022-12-18T12:42:56;19.30;;;11.67;;
18102;SDS011;9178;51.120;6.192;2022-12-18T12:45:44;20.67;;;10.90;;
18102;SDS011;9178;51.120;6.192;2022-12-18T12:48:16;18.37;;;11.80;;
18102;SDS011;9178;51.120;6.192;2022-12-18T12:50:57;21.63;;;11.97;;
18102;SDS011;9178;51.120;6.192;2022-12-18T12:53:31;21.63;;;11.77;;
18102;SDS011;9178;51.120;6.192;2022-12-18T12:56:02;21.47;;;11.97;;
18102;SDS011;9178;51.120;6.192;2022-12-18T12:58:31;19.43;;;11.90;;
18102;SDS011;9178;51.120;6.192;2022-12-18T13:01:10;19.87;;;11.13;;
18102;SDS011;9178;51.120;6.192;2022-12-18T13:03:44;20.53;;;11.67;;
18102;SDS011;9178;51.120;6.192;2022-12-18T13:06:19;20.50;;;12.00;;
18102;SDS011;9178;51.120;6.192;2022-12-18T13:08:56;19.63;;;11.13;;
18102;SDS011;9178;51.120;6.192;2022-12-18T13:11:31;20.63;;;11.37;;
18102;SDS011;9178;51.120;6.192;2022-12-18T13:14:20;20.20;;;11.83;;
18102;SDS011;9178;51.120;6.192;2022-12-18T13:16:51;19.47;;;11.33;;
18102;SDS011;9178;51.120;6.192;2022-12-18T13:19:21;21.40;;;12.07;;
18102;SDS011;9178;51.120;6.192;2022-12-18T13:21:52;23.17;;;12.23;;
18102;SDS011;9178;51.120;6.192;2022-12-18T13:24:23;22.00;;;11.73;;
18102;SDS011;9178;51.120;6.192;2022-12-18T13:26:51;18.93;;;11.70;;
18102;SDS011;9178;51.120;6.192;2022-12-18T13:32:20;20.23;;;11.87;;
18102;SDS011;9178;51.120;6.192;2022-12-18T13:34:48;22.47;;;12.07;;
18102;SDS011;9178;51.120;6.192;2022-12-18T13:37:40;21.13;;;11.30;;
18102;SDS011;9178;51.120;6.192;2022-12-18T13:43:23;22.10;;;12.63;;
18102;SDS011;9178;51.120;6.192;2022-12-18T13:46:03;22.00;;;12.03;;
18102;SDS011;9178;51.120;6.192;2022-12-18T13:48:36;21.80;;;12.33;;
18102;SDS011;9178;51.120;6.192;2022-12-18T13:51:04;25.80;;;12.87;;
18102;SDS011;9178;51.120;6.192;2022-12-18T13:53:34;23.43;;;12.63;;
18102;SDS011;9178;51.120;6.192;2022-12-18T13:56:04;22.23;;;13.23;;
18102;SDS011;9178;51.120;6.192;2022-12-18T13:58:31;23.10;;;13.13;;
18102;SDS011;9178;51.120;6.192;2022-12-18T14:00:59;21.20;;;12.77;;
18102;SDS011;9178;51.120;6.192;2022-12-18T14:03:28;20.67;;;10.97;;
18102;SDS011;9178;51.120;6.192;2022-12-18T14:05:59;23.97;;;12.43;;
18102;SDS011;9178;51.120;6.192;2022-12-18T14:08:30;20.57;;;12.40;;
18102;SDS011;9178;51.120;6.192;2022-12-18T14:11:01;25.13;;;12.90;;
18102;SDS011;9178;51.120;6.192;2022-12-18T14:13:30;24.17;;;13.13;;
18102;SDS011;9178;51.120;6.192;2022-12-18T14:16:01;24.47;;;14.00;;
18102;SDS011;9178;51.120;6.192;2022-12-18T14:18:31;26.13;;;14.53;;
18102;SDS011;9178;51.120;6.192;2022-12-18T14:21:06;22.27;;;13.53;;
18102;SDS011;9178;51.120;6.192;2022-12-18T14:23:41;24.20;;;12.80;;
18102;SDS011;9178;51.120;6.192;2022-12-18T14:26:19;26.23;;;14.50;;
18102;SDS011;9178;51.120;6.192;2022-12-18T14:28:47;26.60;;;12.83;;
18102;SDS011;9178;51.120;6.192;2022-12-18T14:31:18;22.27;;;13.07;;
18102;SDS011;9178;51.120;6.192;2022-12-18T14:33:45;25.40;;;13.97;;
18102;SDS011;9178;51.120;6.192;2022-12-18T14:36:16;22.87;;;12.80;;
18102;SDS011;9178;51.120;6.192;2022-12-18T14:38:43;22.73;;;13.17;;
18102;SDS011;9178;51.120;6.192;2022-12-18T14:41:15;24.53;;;13.80;;
18102;SDS011;9178;51.120;6.192;2022-12-18T14:43:44;25.57;;;13.67;;
18102;SDS011;9178;51.120;6.192;2022-12-18T14:46:25;24.27;;;13.90;;
18102;SDS011;9178;51.120;6.192;2022-12-18T14:48:56;24.47;;;13.47;;
18102;SDS011;9178;51.120;6.192;2022-12-18T14:51:25;24.03;;;12.97;;
18102;SDS011;9178;51.120;6.192;2022-12-18T14:53:53;26.13;;;13.87;;
18102;SDS011;9178;51.120;6.192;2022-12-18T14:56:22;23.03;;;14.03;;
18102;SDS011;9178;51.120;6.192;2022-12-18T14:58:50;26.43;;;14.27;;